sensor_id;sensor_type;location;lat;lon;timestamp;P1;durP1;ratioP1;P2;durP2;ratioP2
21402;SDS011;10862;51.886;17.078;2022-11-15T00:00:45;120.43;;;67.27;;
21402;SDS011;10862;51.886;17.078;2022-11-15T00:03:13;141.70;;;72.53;;
21402;SDS011;10862;51.886;17.078;2022-11-15T00:05:43;102.30;;;48.93;;
21402;SDS011;10862;51.886;17.078;2022-11-15T00:08:09;102.80;;;49.13;;
21402;SDS011;10862;51.886;17.078;2022-11-15T00:10:35;92.80;;;41.00;;
21402;SDS011;10862;51.886;17.078;2022-11-15T00:13:05;76.87;;;36.43;;
21402;SDS011;10862;51.886;17.078;2022-11-15T00:15:39;70.77;;;36.10;;
21402;SDS011;10862;51.886;17.078;2022-11-15T00:18:06;72.70;;;34.23;;
21402;SDS011;10862;51.886;17.078;2022-11-15T00:20:37;69.40;;;35.67;;
21402;SDS011;10862;51.886;17.078;2022-11-15T00:23:03;73.17;;;35.80;;
21402;SDS011;10862;51.886;17.078;2022-11-15T00:25:29;78.00;;;36.67;;
21402;SDS011;10862;51.886;17.078;2022-11-15T00:27:55;69.33;;;36.63;;
21402;SDS011;10862;51.886;17.078;2022-11-15T00:30:22;75.30;;;35.90;;
21402;SDS011;10862;51.886;17.078;2022-11-15T00:32:48;61.23;;;31.67;;
21402;SDS011;10862;51.886;17.078;2022-11-15T00:35:13;79.53;;;37.00;;
21402;SDS011;10862;51.886;17.078;2022-11-15T00:37:39;72.70;;;35.87;;
21402;SDS011;10862;51.886;17.078;2022-11-15T00:40:05;74.03;;;36.80;;
21402;SDS011;10862;51.886;17.078;2022-11-15T00:42:31;72.50;;;32.57;;
21402;SDS011;10862;51.886;17.078;2022-11-15T00:44:57;74.43;;;35.70;;
21402;SDS011;10862;51.886;17.078;2022-11-15T00:47:22;77.57;;;36.43;;
21402;SDS011;10862;51.886;17.078;2022-11-15T00:49:48;78.73;;;36.40;;
21402;SDS011;10862;51.886;17.078;2022-11-15T00:52:14;68.03;;;34.40;;
21402;SDS011;10862;51.886;17.078;2022-11-15T00:54:39;69.93;;;35.23;;
21402;SDS011;10862;51.886;17.078;2022-11-15T00:57:05;74.30;;;36.87;;
21402;SDS011;10862;51.886;17.078;2022-11-15T00:59:30;73.20;;;35.07;;
21402;SDS011;10862;51.886;17.078;2022-11-15T01:01:56;95.50;;;47.13;;
21402;SDS011;10862;51.886;17.078;2022-11-15T01:04:21;77.83;;;36.17;;
21402;SDS011;10862;51.886;17.078;2022-11-15T01:06:47;71.70;;;36.73;;
21402;SDS011;10862;51.886;17.078;2022-11-15T01:09:13;81.17;;;37.47;;
21402;SDS011;10862;51.886;17.078;2022-11-15T01:11:39;73.00;;;37.87;;
21402;SDS011;10862;51.886;17.078;2022-11-15T01:14:04;85.87;;;41.30;;
21402;SDS011;10862;51.886;17.078;2022-11-15T01:16:30;84.43;;;40.93;;
21402;SDS011;10862;51.886;17.078;2022-11-15T01:18:57;87.03;;;40.90;;
21402;SDS011;10862;51.886;17.078;2022-11-15T01:21:23;88.03;;;41.50;;
21402;SDS011;10862;51.886;17.078;2022-11-15T01:23:52;89.47;;;42.00;;
21402;SDS011;10862;51.886;17.078;2022-11-15T01:26:19;78.33;;;40.67;;
21402;SDS011;10862;51.886;17.078;2022-11-15T01:28:45;101.23;;;51.77;;
21402;SDS011;10862;51.886;17.078;2022-11-15T01:31:18;86.17;;;39.53;;
21402;SDS011;10862;51.886;17.078;2022-11-15T01:33:45;94.70;;;48.23;;
21402;SDS011;10862;51.886;17.078;2022-11-15T01:36:18;85.07;;;41.33;;
21402;SDS011;10862;51.886;17.078;2022-11-15T01:38:58;99.93;;;50.27;;
21402;SDS011;10862;51.886;17.078;2022-11-15T01:41:28;90.30;;;48.27;;
21402;SDS011;10862;51.886;17.078;2022-11-15T01:43:56;80.97;;;38.80;;
21402;SDS011;10862;51.886;17.078;2022-11-15T01:46:42;87.00;;;41.40;;
21402;SDS011;10862;51.886;17.078;2022-11-15T01:49:17;79.57;;;38.90;;
21402;SDS011;10862;51.886;17.078;2022-11-15T01:51:44;77.67;;;36.50;;
21402;SDS011;10862;51.886;17.078;2022-11-15T01:54:11;76.63;;;37.13;;
21402;SDS011;10862;51.886;17.078;2022-11-15T01:56:42;83.50;;;39.67;;
21402;SDS011;10862;51.886;17.078;2022-11-15T01:59:12;77.80;;;41.73;;
21402;SDS011;10862;51.886;17.078;2022-11-15T02:01:37;79.37;;;40.27;;
21402;SDS011;10862;51.886;17.078;2022-11-15T02:04:05;82.33;;;39.40;;
21402;SDS011;10862;51.886;17.078;2022-11-15T02:06:36;72.80;;;36.70;;
21402;SDS011;10862;51.886;17.078;2022-11-15T02:09:02;76.90;;;37.27;;
21402;SDS011;10862;51.886;17.078;2022-11-15T02:11:28;73.30;;;37.10;;
21402;SDS011;10862;51.886;17.078;2022-11-15T02:13:54;74.50;;;36.17;;
21402;SDS011;10862;51.886;17.078;2022-11-15T02:23:12;84.03;;;41.87;;
21402;SDS011;10862;51.886;17.078;2022-11-15T02:30:40;109.80;;;46.53;;
21402;SDS011;10862;51.886;17.078;2022-11-15T02:33:35;74.13;;;36.87;;
21402;SDS011;10862;51.886;17.078;2022-11-15T02:39:11;87.73;;;42.43;;
21402;SDS011;10862;51.886;17.078;2022-11-15T02:41:54;94.30;;;42.83;;
21402;SDS011;10862;51.886;17.078;2022-11-15T02:44:51;93.83;;;41.17;;
21402;SDS011;10862;51.886;17.078;2022-11-15T02:47:21;103.10;;;46.03;;
21402;SDS011;10862;51.886;17.078;2022-11-15T02:49:50;78.93;;;36.10;;
21402;SDS011;10862;51.886;17.078;2022-11-15T02:52:19;71.93;;;34.93;;
21402;SDS011;10862;51.886;17.078;2022-11-15T02:54:56;76.83;;;39.93;;
21402;SDS011;10862;51.886;17.078;2022-11-15T02:57:29;79.57;;;40.47;;
21402;SDS011;10862;51.886;17.078;2022-11-15T03:00:06;85.07;;;41.33;;
21402;SDS011;10862;51.886;17.078;2022-11-15T03:02:57;86.73;;;41.13;;
21402;SDS011;10862;51.886;17.078;2022-11-15T03:13:33;79.60;;;37.23;;
21402;SDS011;10862;51.886;17.078;2022-11-15T03:19:15;77.50;;;37.23;;
21402;SDS011;10862;51.886;17.078;2022-11-15T03:21:46;74.27;;;33.63;;
21402;SDS011;10862;51.886;17.078;2022-11-15T03:24:14;65.07;;;33.57;;
21402;SDS011;10862;51.886;17.078;2022-11-15T03:26:42;74.03;;;35.23;;
21402;SDS011;10862;51.886;17.078;2022-11-15T03:29:15;66.97;;;33.57;;
21402;SDS011;10862;51.886;17.078;2022-11-15T03:31:44;72.70;;;35.07;;
21402;SDS011;10862;51.886;17.078;2022-11-15T03:34:39;69.27;;;35.07;;
21402;SDS011;10862;51.886;17.078;2022-11-15T03:37:24;82.20;;;36.93;;
21402;SDS011;10862;51.886;17.078;2022-11-15T03:39:54;75.57;;;36.43;;
21402;SDS011;10862;51.886;17.078;2022-11-15T03:42:38;70.13;;;34.00;;
21402;SDS011;10862;51.886;17.078;2022-11-15T03:45:12;81.27;;;34.27;;
21402;SDS011;10862;51.886;17.078;2022-11-15T03:47:53;78.63;;;36.07;;
21402;SDS011;10862;51.886;17.078;2022-11-15T03:50:27;74.00;;;36.20;;
21402;SDS011;10862;51.886;17.078;2022-11-15T03:52:53;75.37;;;36.40;;
21402;SDS011;10862;51.886;17.078;2022-11-15T03:55:20;74.30;;;34.57;;
21402;SDS011;10862;51.886;17.078;2022-11-15T03:57:47;66.97;;;32.63;;
21402;SDS011;10862;51.886;17.078;2022-11-15T04:00:15;71.40;;;32.73;;
21402;SDS011;10862;51.886;17.078;2022-11-15T04:02:41;70.10;;;32.83;;
21402;SDS011;10862;51.886;17.078;2022-11-15T04:05:07;72.03;;;34.10;;
21402;SDS011;10862;51.886;17.078;2022-11-15T04:07:32;72.27;;;33.83;;
21402;SDS011;10862;51.886;17.078;2022-11-15T04:09:58;71.00;;;36.97;;
21402;SDS011;10862;51.886;17.078;2022-11-15T04:12:27;73.77;;;35.63;;
21402;SDS011;10862;51.886;17.078;2022-11-15T04:17:47;70.03;;;34.57;;
21402;SDS011;10862;51.886;17.078;2022-11-15T04:20:18;69.90;;;33.73;;
21402;SDS011;10862;51.886;17.078;2022-11-15T04:23:11;73.20;;;33.27;;
21402;SDS011;10862;51.886;17.078;2022-11-15T04:25:56;104.70;;;47.30;;
21402;SDS011;10862;51.886;17.078;2022-11-15T04:28:24;100.13;;;46.13;;
21402;SDS011;10862;51.886;17.078;2022-11-15T04:30:49;103.30;;;46.97;;
21402;SDS011;10862;51.886;17.078;2022-11-15T04:33:15;113.63;;;49.80;;
21402;SDS011;10862;51.886;17.078;2022-11-15T04:35:41;107.67;;;48.33;;
21402;SDS011;10862;51.886;17.078;2022-11-15T04:38:08;103.00;;;46.57;;
21402;SDS011;10862;51.886;17.078;2022-11-15T04:40:35;102.33;;;49.67;;
21402;SDS011;10862;51.886;17.078;2022-11-15T04:43:01;67.43;;;34.67;;
21402;SDS011;10862;51.886;17.078;2022-11-15T04:45:27;77.23;;;32.57;;
21402;SDS011;10862;51.886;17.078;2022-11-15T04:47:53;75.50;;;32.90;;
21402;SDS011;10862;51.886;17.078;2022-11-15T04:50:18;62.70;;;33.00;;
21402;SDS011;10862;51.886;17.078;2022-11-15T04:52:50;69.20;;;31.07;;
21402;SDS011;10862;51.886;17.078;2022-11-15T04:55:17;73.10;;;32.17;;
21402;SDS011;10862;51.886;17.078;2022-11-15T04:57:42;71.83;;;34.07;;
21402;SDS011;10862;51.886;17.078;2022-11-15T05:00:09;69.77;;;37.13;;
21402;SDS011;10862;51.886;17.078;2022-11-15T05:02:37;84.07;;;38.30;;
21402;SDS011;10862;51.886;17.078;2022-11-15T05:05:23;79.77;;;40.07;;
21402;SDS011;10862;51.886;17.078;2022-11-15T05:07:50;67.93;;;34.60;;
21402;SDS011;10862;51.886;17.078;2022-11-15T05:10:16;65.33;;;33.40;;
21402;SDS011;10862;51.886;17.078;2022-11-15T05:12:42;88.60;;;43.73;;
21402;SDS011;10862;51.886;17.078;2022-11-15T05:15:07;91.63;;;48.10;;
21402;SDS011;10862;51.886;17.078;2022-11-15T05:17:33;78.03;;;41.77;;
21402;SDS011;10862;51.886;17.078;2022-11-15T05:19:59;70.27;;;37.57;;
21402;SDS011;10862;51.886;17.078;2022-11-15T05:22:25;72.47;;;40.80;;
21402;SDS011;10862;51.886;17.078;2022-11-15T05:24:51;81.90;;;42.93;;
21402;SDS011;10862;51.886;17.078;2022-11-15T05:27:17;71.17;;;35.83;;
21402;SDS011;10862;51.886;17.078;2022-11-15T05:29:42;74.97;;;36.10;;
21402;SDS011;10862;51.886;17.078;2022-11-15T05:32:08;131.93;;;68.13;;
21402;SDS011;10862;51.886;17.078;2022-11-15T05:34:35;155.70;;;78.50;;
21402;SDS011;10862;51.886;17.078;2022-11-15T05:37:00;81.87;;;41.00;;
21402;SDS011;10862;51.886;17.078;2022-11-15T05:39:26;149.77;;;75.87;;
21402;SDS011;10862;51.886;17.078;2022-11-15T05:41:53;108.33;;;45.73;;
21402;SDS011;10862;51.886;17.078;2022-11-15T05:44:24;150.83;;;55.47;;
21402;SDS011;10862;51.886;17.078;2022-11-15T05:46:51;243.53;;;99.23;;
21402;SDS011;10862;51.886;17.078;2022-11-15T05:49:19;98.07;;;44.33;;
21402;SDS011;10862;51.886;17.078;2022-11-15T05:51:49;80.30;;;37.57;;
21402;SDS011;10862;51.886;17.078;2022-11-15T05:54:16;76.23;;;38.07;;
21402;SDS011;10862;51.886;17.078;2022-11-15T05:56:42;84.03;;;40.73;;
21402;SDS011;10862;51.886;17.078;2022-11-15T05:59:08;118.87;;;60.20;;
21402;SDS011;10862;51.886;17.078;2022-11-15T06:01:35;112.17;;;48.60;;
21402;SDS011;10862;51.886;17.078;2022-11-15T06:04:01;121.40;;;49.03;;
21402;SDS011;10862;51.886;17.078;2022-11-15T06:06:27;138.30;;;57.40;;
21402;SDS011;10862;51.886;17.078;2022-11-15T06:08:53;105.20;;;47.67;;
21402;SDS011;10862;51.886;17.078;2022-11-15T06:11:19;93.80;;;42.87;;
21402;SDS011;10862;51.886;17.078;2022-11-15T06:13:45;84.80;;;42.60;;
21402;SDS011;10862;51.886;17.078;2022-11-15T06:16:10;85.53;;;44.87;;
21402;SDS011;10862;51.886;17.078;2022-11-15T06:18:36;85.00;;;41.20;;
21402;SDS011;10862;51.886;17.078;2022-11-15T06:21:02;88.50;;;37.70;;
21402;SDS011;10862;51.886;17.078;2022-11-15T06:23:30;77.67;;;37.70;;
21402;SDS011;10862;51.886;17.078;2022-11-15T06:25:58;74.53;;;39.10;;
21402;SDS011;10862;51.886;17.078;2022-11-15T06:28:24;76.37;;;35.87;;
21402;SDS011;10862;51.886;17.078;2022-11-15T06:30:52;76.37;;;35.83;;
21402;SDS011;10862;51.886;17.078;2022-11-15T06:33:18;86.17;;;39.40;;
21402;SDS011;10862;51.886;17.078;2022-11-15T06:35:43;69.37;;;37.43;;
21402;SDS011;10862;51.886;17.078;2022-11-15T06:38:09;80.03;;;38.27;;
21402;SDS011;10862;51.886;17.078;2022-11-15T06:40:36;80.10;;;38.17;;
21402;SDS011;10862;51.886;17.078;2022-11-15T06:43:03;77.13;;;36.83;;
21402;SDS011;10862;51.886;17.078;2022-11-15T06:45:30;84.67;;;39.57;;
21402;SDS011;10862;51.886;17.078;2022-11-15T06:47:56;78.37;;;38.83;;
21402;SDS011;10862;51.886;17.078;2022-11-15T06:50:22;75.70;;;37.77;;
21402;SDS011;10862;51.886;17.078;2022-11-15T06:52:48;78.00;;;36.93;;
21402;SDS011;10862;51.886;17.078;2022-11-15T06:55:13;75.77;;;36.37;;
21402;SDS011;10862;51.886;17.078;2022-11-15T06:57:52;86.27;;;37.27;;
21402;SDS011;10862;51.886;17.078;2022-11-15T07:00:18;90.83;;;39.57;;
21402;SDS011;10862;51.886;17.078;2022-11-15T07:02:45;86.30;;;39.27;;
21402;SDS011;10862;51.886;17.078;2022-11-15T07:05:11;82.73;;;40.00;;
21402;SDS011;10862;51.886;17.078;2022-11-15T07:07:38;80.90;;;39.27;;
21402;SDS011;10862;51.886;17.078;2022-11-15T07:10:05;87.53;;;38.40;;
21402;SDS011;10862;51.886;17.078;2022-11-15T07:12:31;81.37;;;38.53;;
21402;SDS011;10862;51.886;17.078;2022-11-15T07:14:57;78.43;;;37.93;;
21402;SDS011;10862;51.886;17.078;2022-11-15T07:17:22;82.67;;;41.07;;
21402;SDS011;10862;51.886;17.078;2022-11-15T07:19:48;85.20;;;39.40;;
21402;SDS011;10862;51.886;17.078;2022-11-15T07:22:14;82.47;;;40.17;;
21402;SDS011;10862;51.886;17.078;2022-11-15T07:24:39;85.10;;;38.63;;
21402;SDS011;10862;51.886;17.078;2022-11-15T07:27:05;82.20;;;39.70;;
21402;SDS011;10862;51.886;17.078;2022-11-15T07:29:31;97.07;;;48.33;;
21402;SDS011;10862;51.886;17.078;2022-11-15T07:31:56;118.97;;;57.43;;
21402;SDS011;10862;51.886;17.078;2022-11-15T07:34:22;89.93;;;40.93;;
21402;SDS011;10862;51.886;17.078;2022-11-15T07:36:48;83.70;;;41.07;;
21402;SDS011;10862;51.886;17.078;2022-11-15T07:39:14;81.83;;;42.20;;
21402;SDS011;10862;51.886;17.078;2022-11-15T07:41:40;84.90;;;41.53;;
21402;SDS011;10862;51.886;17.078;2022-11-15T07:44:05;88.83;;;41.17;;
21402;SDS011;10862;51.886;17.078;2022-11-15T07:46:31;84.03;;;40.17;;
21402;SDS011;10862;51.886;17.078;2022-11-15T07:48:57;84.37;;;39.90;;
21402;SDS011;10862;51.886;17.078;2022-11-15T07:51:22;78.07;;;38.80;;
21402;SDS011;10862;51.886;17.078;2022-11-15T07:53:48;75.23;;;37.70;;
21402;SDS011;10862;51.886;17.078;2022-11-15T07:56:14;91.00;;;42.83;;
21402;SDS011;10862;51.886;17.078;2022-11-15T07:58:40;88.20;;;39.93;;
21402;SDS011;10862;51.886;17.078;2022-11-15T08:01:06;84.83;;;41.87;;
21402;SDS011;10862;51.886;17.078;2022-11-15T08:03:33;80.10;;;41.93;;
21402;SDS011;10862;51.886;17.078;2022-11-15T08:05:59;81.20;;;38.80;;
21402;SDS011;10862;51.886;17.078;2022-11-15T08:08:25;86.70;;;41.40;;
21402;SDS011;10862;51.886;17.078;2022-11-15T08:10:50;92.37;;;40.40;;
21402;SDS011;10862;51.886;17.078;2022-11-15T08:13:16;78.40;;;38.57;;
21402;SDS011;10862;51.886;17.078;2022-11-15T08:15:42;86.63;;;41.37;;
21402;SDS011;10862;51.886;17.078;2022-11-15T08:18:13;86.90;;;41.53;;
21402;SDS011;10862;51.886;17.078;2022-11-15T08:20:40;89.17;;;43.83;;
21402;SDS011;10862;51.886;17.078;2022-11-15T08:23:07;100.37;;;47.30;;
21402;SDS011;10862;51.886;17.078;2022-11-15T08:25:34;95.60;;;47.07;;
21402;SDS011;10862;51.886;17.078;2022-11-15T08:28:02;94.20;;;41.60;;
21402;SDS011;10862;51.886;17.078;2022-11-15T08:30:29;92.00;;;46.90;;
21402;SDS011;10862;51.886;17.078;2022-11-15T08:32:56;97.03;;;46.77;;
21402;SDS011;10862;51.886;17.078;2022-11-15T08:35:23;92.03;;;44.30;;
21402;SDS011;10862;51.886;17.078;2022-11-15T08:37:48;80.87;;;40.00;;
21402;SDS011;10862;51.886;17.078;2022-11-15T08:40:14;84.23;;;42.07;;
21402;SDS011;10862;51.886;17.078;2022-11-15T08:42:40;95.80;;;43.30;;
21402;SDS011;10862;51.886;17.078;2022-11-15T08:45:06;88.20;;;42.47;;
21402;SDS011;10862;51.886;17.078;2022-11-15T08:47:33;79.13;;;39.97;;
21402;SDS011;10862;51.886;17.078;2022-11-15T08:49:59;79.00;;;39.30;;
21402;SDS011;10862;51.886;17.078;2022-11-15T08:52:25;78.43;;;39.47;;
21402;SDS011;10862;51.886;17.078;2022-11-15T08:54:50;74.57;;;37.33;;
21402;SDS011;10862;51.886;17.078;2022-11-15T08:57:16;75.40;;;40.20;;
21402;SDS011;10862;51.886;17.078;2022-11-15T08:59:42;89.97;;;43.97;;
21402;SDS011;10862;51.886;17.078;2022-11-15T09:02:11;82.93;;;40.57;;
21402;SDS011;10862;51.886;17.078;2022-11-15T09:04:40;76.73;;;40.87;;
21402;SDS011;10862;51.886;17.078;2022-11-15T09:07:06;74.07;;;36.10;;
21402;SDS011;10862;51.886;17.078;2022-11-15T09:09:32;65.77;;;34.17;;
21402;SDS011;10862;51.886;17.078;2022-11-15T09:11:57;71.00;;;37.60;;
21402;SDS011;10862;51.886;17.078;2022-11-15T09:14:23;70.40;;;34.33;;
21402;SDS011;10862;51.886;17.078;2022-11-15T09:16:49;65.93;;;33.70;;
21402;SDS011;10862;51.886;17.078;2022-11-15T09:19:14;60.07;;;32.43;;
21402;SDS011;10862;51.886;17.078;2022-11-15T09:21:40;51.83;;;29.43;;
21402;SDS011;10862;51.886;17.078;2022-11-15T09:24:05;56.87;;;31.80;;
21402;SDS011;10862;51.886;17.078;2022-11-15T09:26:31;57.17;;;30.70;;
21402;SDS011;10862;51.886;17.078;2022-11-15T09:28:57;47.37;;;29.93;;
21402;SDS011;10862;51.886;17.078;2022-11-15T09:31:22;58.33;;;31.83;;
21402;SDS011;10862;51.886;17.078;2022-11-15T09:33:48;63.60;;;34.40;;
21402;SDS011;10862;51.886;17.078;2022-11-15T09:36:13;60.13;;;34.20;;
21402;SDS011;10862;51.886;17.078;2022-11-15T09:38:39;57.03;;;32.67;;
21402;SDS011;10862;51.886;17.078;2022-11-15T09:49:36;47.10;;;30.80;;
21402;SDS011;10862;51.886;17.078;2022-11-15T09:52:02;55.43;;;32.27;;
21402;SDS011;10862;51.886;17.078;2022-11-15T09:54:29;45.07;;;28.70;;
21402;SDS011;10862;51.886;17.078;2022-11-15T09:56:56;50.07;;;30.67;;
21402;SDS011;10862;51.886;17.078;2022-11-15T09:59:37;48.33;;;28.67;;
21402;SDS011;10862;51.886;17.078;2022-11-15T10:05:03;53.53;;;30.50;;
21402;SDS011;10862;51.886;17.078;2022-11-15T10:07:46;56.43;;;35.70;;
21402;SDS011;10862;51.886;17.078;2022-11-15T10:10:20;48.90;;;30.87;;
21402;SDS011;10862;51.886;17.078;2022-11-15T10:13:03;51.17;;;30.50;;
21402;SDS011;10862;51.886;17.078;2022-11-15T10:15:29;52.93;;;30.60;;
21402;SDS011;10862;51.886;17.078;2022-11-15T10:18:08;53.43;;;31.43;;
21402;SDS011;10862;51.886;17.078;2022-11-15T10:20:50;51.83;;;31.77;;
21402;SDS011;10862;51.886;17.078;2022-11-15T10:23:22;54.30;;;32.70;;
21402;SDS011;10862;51.886;17.078;2022-11-15T10:25:58;51.07;;;30.67;;
21402;SDS011;10862;51.886;17.078;2022-11-15T10:28:33;52.77;;;32.00;;
21402;SDS011;10862;51.886;17.078;2022-11-15T10:30:59;59.57;;;33.77;;
21402;SDS011;10862;51.886;17.078;2022-11-15T10:41:22;55.03;;;32.73;;
21402;SDS011;10862;51.886;17.078;2022-11-15T10:46:36;61.20;;;34.17;;
21402;SDS011;10862;51.886;17.078;2022-11-15T10:49:36;54.73;;;31.67;;
21402;SDS011;10862;51.886;17.078;2022-11-15T10:51:57;54.17;;;32.83;;
21402;SDS011;10862;51.886;17.078;2022-11-15T10:57:31;56.97;;;33.20;;
21402;SDS011;10862;51.886;17.078;2022-11-15T11:07:57;53.00;;;32.27;;
21402;SDS011;10862;51.886;17.078;2022-11-15T11:10:30;64.87;;;35.13;;
21402;SDS011;10862;51.886;17.078;2022-11-15T11:35:20;59.07;;;32.37;;
21402;SDS011;10862;51.886;17.078;2022-11-15T11:40:51;50.13;;;30.50;;
21402;SDS011;10862;51.886;17.078;2022-11-15T11:48:53;53.63;;;30.97;;
21402;SDS011;10862;51.886;17.078;2022-11-15T11:51:28;55.57;;;35.33;;
21402;SDS011;10862;51.886;17.078;2022-11-15T11:54:05;56.60;;;34.63;;
21402;SDS011;10862;51.886;17.078;2022-11-15T11:56:39;51.00;;;31.73;;
21402;SDS011;10862;51.886;17.078;2022-11-15T11:59:18;54.17;;;32.30;;
21402;SDS011;10862;51.886;17.078;2022-11-15T12:02:28;58.67;;;33.80;;
21402;SDS011;10862;51.886;17.078;2022-11-15T12:05:09;51.57;;;31.10;;
21402;SDS011;10862;51.886;17.078;2022-11-15T12:07:52;47.17;;;30.90;;
21402;SDS011;10862;51.886;17.078;2022-11-15T12:10:25;49.10;;;29.97;;
21402;SDS011;10862;51.886;17.078;2022-11-15T12:12:58;49.17;;;29.00;;
21402;SDS011;10862;51.886;17.078;2022-11-15T12:15:26;54.50;;;29.83;;
21402;SDS011;10862;51.886;17.078;2022-11-15T12:17:57;46.67;;;28.53;;
21402;SDS011;10862;51.886;17.078;2022-11-15T12:20:26;51.10;;;31.07;;
21402;SDS011;10862;51.886;17.078;2022-11-15T12:23:05;50.60;;;29.97;;
21402;SDS011;10862;51.886;17.078;2022-11-15T12:26:00;55.23;;;31.50;;
21402;SDS011;10862;51.886;17.078;2022-11-15T12:33:49;54.97;;;34.07;;
21402;SDS011;10862;51.886;17.078;2022-11-15T12:38:52;60.03;;;33.53;;
21402;SDS011;10862;51.886;17.078;2022-11-15T12:43:58;60.47;;;36.50;;
21402;SDS011;10862;51.886;17.078;2022-11-15T12:49:00;65.30;;;36.83;;
21402;SDS011;10862;51.886;17.078;2022-11-15T13:27:50;63.40;;;35.53;;
21402;SDS011;10862;51.886;17.078;2022-11-15T13:30:19;65.43;;;33.63;;
21402;SDS011;10862;51.886;17.078;2022-11-15T13:33:07;70.73;;;42.47;;
21402;SDS011;10862;51.886;17.078;2022-11-15T13:36:00;70.77;;;40.20;;
21402;SDS011;10862;51.886;17.078;2022-11-15T13:38:29;70.83;;;39.63;;
21402;SDS011;10862;51.886;17.078;2022-11-15T13:40:57;74.47;;;42.60;;
21402;SDS011;10862;51.886;17.078;2022-11-15T13:43:26;80.80;;;45.93;;
21402;SDS011;10862;51.886;17.078;2022-11-15T13:48:43;71.63;;;40.30;;
21402;SDS011;10862;51.886;17.078;2022-11-15T13:51:28;95.00;;;52.27;;
21402;SDS011;10862;51.886;17.078;2022-11-15T13:59:29;119.47;;;55.73;;
21402;SDS011;10862;51.886;17.078;2022-11-15T14:01:59;123.87;;;56.63;;
21402;SDS011;10862;51.886;17.078;2022-11-15T14:04:29;112.30;;;47.90;;
21402;SDS011;10862;51.886;17.078;2022-11-15T14:06:58;123.70;;;59.17;;
21402;SDS011;10862;51.886;17.078;2022-11-15T14:11:57;98.73;;;58.17;;
21402;SDS011;10862;51.886;17.078;2022-11-15T14:14:24;97.63;;;55.97;;
21402;SDS011;10862;51.886;17.078;2022-11-15T14:16:52;75.23;;;42.87;;
21402;SDS011;10862;51.886;17.078;2022-11-15T14:22:10;81.40;;;45.10;;
21402;SDS011;10862;51.886;17.078;2022-11-15T14:24:38;89.83;;;53.10;;
21402;SDS011;10862;51.886;17.078;2022-11-15T14:27:18;107.63;;;56.90;;
21402;SDS011;10862;51.886;17.078;2022-11-15T14:29:51;106.40;;;58.83;;
21402;SDS011;10862;51.886;17.078;2022-11-15T14:32:19;125.27;;;63.10;;
21402;SDS011;10862;51.886;17.078;2022-11-15T14:34:56;150.33;;;72.57;;
21402;SDS011;10862;51.886;17.078;2022-11-15T14:37:31;201.60;;;82.40;;
21402;SDS011;10862;51.886;17.078;2022-11-15T14:39:59;207.50;;;90.40;;
21402;SDS011;10862;51.886;17.078;2022-11-15T14:42:26;86.73;;;49.20;;
21402;SDS011;10862;51.886;17.078;2022-11-15T14:44:52;129.37;;;58.10;;
21402;SDS011;10862;51.886;17.078;2022-11-15T14:47:17;145.23;;;66.93;;
21402;SDS011;10862;51.886;17.078;2022-11-15T14:49:44;280.73;;;131.73;;
21402;SDS011;10862;51.886;17.078;2022-11-15T14:52:29;191.07;;;92.53;;
21402;SDS011;10862;51.886;17.078;2022-11-15T14:55:00;163.27;;;82.83;;
21402;SDS011;10862;51.886;17.078;2022-11-15T14:57:27;565.50;;;232.63;;
21402;SDS011;10862;51.886;17.078;2022-11-15T14:59:53;696.13;;;323.40;;
21402;SDS011;10862;51.886;17.078;2022-11-15T15:04:47;482.43;;;205.13;;
21402;SDS011;10862;51.886;17.078;2022-11-15T15:07:13;627.43;;;275.00;;
21402;SDS011;10862;51.886;17.078;2022-11-15T15:09:39;305.57;;;126.87;;
21402;SDS011;10862;51.886;17.078;2022-11-15T15:12:09;844.03;;;517.73;;
21402;SDS011;10862;51.886;17.078;2022-11-15T15:14:41;461.57;;;267.33;;
21402;SDS011;10862;51.886;17.078;2022-11-15T15:17:07;213.60;;;119.33;;
21402;SDS011;10862;51.886;17.078;2022-11-15T15:19:32;221.47;;;136.67;;
21402;SDS011;10862;51.886;17.078;2022-11-15T15:21:58;176.73;;;95.50;;
21402;SDS011;10862;51.886;17.078;2022-11-15T15:24:23;172.53;;;97.47;;
21402;SDS011;10862;51.886;17.078;2022-11-15T15:26:49;169.40;;;89.50;;
21402;SDS011;10862;51.886;17.078;2022-11-15T15:29:15;199.27;;;105.13;;
21402;SDS011;10862;51.886;17.078;2022-11-15T15:31:40;216.57;;;114.43;;
21402;SDS011;10862;51.886;17.078;2022-11-15T15:34:06;261.20;;;121.80;;
21402;SDS011;10862;51.886;17.078;2022-11-15T15:36:31;295.37;;;129.50;;
21402;SDS011;10862;51.886;17.078;2022-11-15T15:38:57;225.20;;;110.77;;
21402;SDS011;10862;51.886;17.078;2022-11-15T15:41:23;194.47;;;90.77;;
21402;SDS011;10862;51.886;17.078;2022-11-15T15:43:48;202.67;;;109.47;;
21402;SDS011;10862;51.886;17.078;2022-11-15T15:46:16;301.30;;;158.20;;
21402;SDS011;10862;51.886;17.078;2022-11-15T15:48:43;406.23;;;217.77;;
21402;SDS011;10862;51.886;17.078;2022-11-15T15:51:09;298.97;;;128.97;;
21402;SDS011;10862;51.886;17.078;2022-11-15T15:53:35;235.03;;;97.63;;
21402;SDS011;10862;51.886;17.078;2022-11-15T15:56:01;210.80;;;95.70;;
21402;SDS011;10862;51.886;17.078;2022-11-15T15:58:27;225.13;;;107.10;;
21402;SDS011;10862;51.886;17.078;2022-11-15T16:00:52;380.60;;;206.97;;
21402;SDS011;10862;51.886;17.078;2022-11-15T16:03:18;279.00;;;144.23;;
21402;SDS011;10862;51.886;17.078;2022-11-15T16:05:44;168.00;;;73.87;;
21402;SDS011;10862;51.886;17.078;2022-11-15T16:08:31;157.10;;;74.60;;
21402;SDS011;10862;51.886;17.078;2022-11-15T16:10:55;188.57;;;101.43;;
21402;SDS011;10862;51.886;17.078;2022-11-15T16:13:21;187.50;;;92.80;;
21402;SDS011;10862;51.886;17.078;2022-11-15T16:15:48;208.63;;;84.43;;
21402;SDS011;10862;51.886;17.078;2022-11-15T16:18:17;165.93;;;80.57;;
21402;SDS011;10862;51.886;17.078;2022-11-15T16:20:44;170.27;;;80.87;;
21402;SDS011;10862;51.886;17.078;2022-11-15T16:23:14;243.20;;;124.47;;
21402;SDS011;10862;51.886;17.078;2022-11-15T16:25:44;200.00;;;99.73;;
21402;SDS011;10862;51.886;17.078;2022-11-15T16:28:30;188.53;;;86.40;;
21402;SDS011;10862;51.886;17.078;2022-11-15T16:31:01;235.60;;;102.77;;
21402;SDS011;10862;51.886;17.078;2022-11-15T16:33:30;190.57;;;69.67;;
21402;SDS011;10862;51.886;17.078;2022-11-15T16:35:56;270.40;;;119.33;;
21402;SDS011;10862;51.886;17.078;2022-11-15T16:38:22;236.03;;;103.77;;
21402;SDS011;10862;51.886;17.078;2022-11-15T16:40:48;167.33;;;72.27;;
21402;SDS011;10862;51.886;17.078;2022-11-15T16:43:13;192.50;;;85.60;;
21402;SDS011;10862;51.886;17.078;2022-11-15T16:45:39;390.87;;;180.80;;
21402;SDS011;10862;51.886;17.078;2022-11-15T16:50:11;266.80;;;111.27;;
21402;SDS011;10862;51.886;17.078;2022-11-15T16:52:48;141.20;;;67.73;;
21402;SDS011;10862;51.886;17.078;2022-11-15T16:55:18;213.80;;;98.97;;